sensor_id;sensor_type;location;lat;lon;timestamp;P1;durP1;ratioP1;P2;durP2;ratioP2
12302;SDS011;6214;48.012;7.862;2024-02-26T00:02:17;4.10;;;0.40;;
12302;SDS011;6214;48.012;7.862;2024-02-26T00:04:44;4.40;;;0.60;;
12302;SDS011;6214;48.012;7.862;2024-02-26T00:07:11;4.30;;;0.60;;
12302;SDS011;6214;48.012;7.862;2024-02-26T00:09:38;4.10;;;0.50;;
12302;SDS011;6214;48.012;7.862;2024-02-26T00:12:05;4.10;;;0.40;;
12302;SDS011;6214;48.012;7.862;2024-02-26T00:14:33;4.50;;;0.50;;
12302;SDS011;6214;48.012;7.862;2024-02-26T00:17:00;4.10;;;0.40;;
12302;SDS011;6214;48.012;7.862;2024-02-26T00:19:27;4.00;;;0.40;;
12302;SDS011;6214;48.012;7.862;2024-02-26T00:21:54;4.00;;;0.40;;
12302;SDS011;6214;48.012;7.862;2024-02-26T00:24:22;4.00;;;0.30;;
12302;SDS011;6214;48.012;7.862;2024-02-26T00:26:49;4.00;;;0.30;;
12302;SDS011;6214;48.012;7.862;2024-02-26T00:29:19;4.00;;;0.35;;
12302;SDS011;6214;48.012;7.862;2024-02-26T00:31:47;4.10;;;0.40;;
12302;SDS011;6214;48.012;7.862;2024-02-26T00:34:14;4.00;;;0.40;;
12302;SDS011;6214;48.012;7.862;2024-02-26T00:36:41;4.00;;;0.40;;
12302;SDS011;6214;48.012;7.862;2024-02-26T00:39:08;4.30;;;0.60;;
12302;SDS011;6214;48.012;7.862;2024-02-26T00:41:42;4.00;;;0.30;;
12302;SDS011;6214;48.012;7.862;2024-02-26T00:44:09;4.00;;;0.40;;
12302;SDS011;6214;48.012;7.862;2024-02-26T00:46:36;4.00;;;0.40;;
12302;SDS011;6214;48.012;7.862;2024-02-26T00:49:03;4.00;;;0.40;;
12302;SDS011;6214;48.012;7.862;2024-02-26T00:51:30;4.00;;;0.40;;
12302;SDS011;6214;48.012;7.862;2024-02-26T00:53:57;4.00;;;0.40;;
12302;SDS011;6214;48.012;7.862;2024-02-26T00:56:25;4.00;;;0.40;;
12302;SDS011;6214;48.012;7.862;2024-02-26T00:58:51;4.20;;;0.40;;
12302;SDS011;6214;48.012;7.862;2024-02-26T01:01:19;4.00;;;0.40;;
12302;SDS011;6214;48.012;7.862;2024-02-26T01:03:46;4.00;;;0.40;;
12302;SDS011;6214;48.012;7.862;2024-02-26T01:06:13;4.00;;;0.40;;
12302;SDS011;6214;48.012;7.862;2024-02-26T01:08:40;4.00;;;0.40;;
12302;SDS011;6214;48.012;7.862;2024-02-26T01:11:07;4.00;;;0.30;;
12302;SDS011;6214;48.012;7.862;2024-02-26T01:13:34;4.00;;;0.40;;
12302;SDS011;6214;48.012;7.862;2024-02-26T01:16:01;4.00;;;0.30;;
12302;SDS011;6214;48.012;7.862;2024-02-26T01:18:28;4.05;;;0.40;;
12302;SDS011;6214;48.012;7.862;2024-02-26T01:20:56;4.10;;;0.40;;
12302;SDS011;6214;48.012;7.862;2024-02-26T01:23:23;4.00;;;0.30;;
12302;SDS011;6214;48.012;7.862;2024-02-26T01:25:50;4.00;;;0.40;;
12302;SDS011;6214;48.012;7.862;2024-02-26T01:28:17;4.10;;;0.40;;
12302;SDS011;6214;48.012;7.862;2024-02-26T01:30:44;4.00;;;0.40;;
12302;SDS011;6214;48.012;7.862;2024-02-26T01:33:10;4.15;;;0.40;;
12302;SDS011;6214;48.012;7.862;2024-02-26T01:35:38;4.00;;;0.40;;
12302;SDS011;6214;48.012;7.862;2024-02-26T01:38:05;4.03;;;0.40;;
12302;SDS011;6214;48.012;7.862;2024-02-26T01:40:32;4.20;;;0.40;;
12302;SDS011;6214;48.012;7.862;2024-02-26T01:42:59;4.10;;;0.40;;
12302;SDS011;6214;48.012;7.862;2024-02-26T01:45:27;4.10;;;0.50;;
12302;SDS011;6214;48.012;7.862;2024-02-26T01:47:55;4.00;;;0.40;;
12302;SDS011;6214;48.012;7.862;2024-02-26T01:50:23;4.00;;;0.40;;
12302;SDS011;6214;48.012;7.862;2024-02-26T01:52:51;4.00;;;0.40;;
12302;SDS011;6214;48.012;7.862;2024-02-26T01:55:19;4.00;;;0.40;;
12302;SDS011;6214;48.012;7.862;2024-02-26T01:57:49;3.95;;;0.30;;
12302;SDS011;6214;48.012;7.862;2024-02-26T02:00:18;4.10;;;0.40;;
12302;SDS011;6214;48.012;7.862;2024-02-26T02:02:46;4.00;;;0.40;;
12302;SDS011;6214;48.012;7.862;2024-02-26T02:05:15;4.00;;;0.32;;
12302;SDS011;6214;48.012;7.862;2024-02-26T02:07:45;4.10;;;0.40;;
12302;SDS011;6214;48.012;7.862;2024-02-26T02:10:15;4.10;;;0.40;;
12302;SDS011;6214;48.012;7.862;2024-02-26T02:12:42;4.00;;;0.30;;
12302;SDS011;6214;48.012;7.862;2024-02-26T02:15:09;4.07;;;0.40;;
12302;SDS011;6214;48.012;7.862;2024-02-26T02:17:37;4.07;;;0.40;;
12302;SDS011;6214;48.012;7.862;2024-02-26T02:20:04;4.00;;;0.40;;
12302;SDS011;6214;48.012;7.862;2024-02-26T02:22:35;4.00;;;0.40;;
12302;SDS011;6214;48.012;7.862;2024-02-26T02:25:02;4.00;;;0.40;;
12302;SDS011;6214;48.012;7.862;2024-02-26T02:27:30;4.00;;;0.40;;
12302;SDS011;6214;48.012;7.862;2024-02-26T02:29:57;4.10;;;0.40;;
12302;SDS011;6214;48.012;7.862;2024-02-26T02:32:24;4.10;;;0.40;;
12302;SDS011;6214;48.012;7.862;2024-02-26T02:34:52;4.00;;;0.40;;
12302;SDS011;6214;48.012;7.862;2024-02-26T02:37:19;4.20;;;0.50;;
12302;SDS011;6214;48.012;7.862;2024-02-26T02:39:46;4.10;;;0.40;;
12302;SDS011;6214;48.012;7.862;2024-02-26T02:42:13;4.00;;;0.40;;
12302;SDS011;6214;48.012;7.862;2024-02-26T02:44:40;4.00;;;0.40;;
12302;SDS011;6214;48.012;7.862;2024-02-26T02:47:07;4.00;;;0.40;;
12302;SDS011;6214;48.012;7.862;2024-02-26T02:49:34;4.10;;;0.47;;
12302;SDS011;6214;48.012;7.862;2024-02-26T02:52:01;4.20;;;0.50;;
12302;SDS011;6214;48.012;7.862;2024-02-26T02:54:28;4.10;;;0.40;;
12302;SDS011;6214;48.012;7.862;2024-02-26T02:56:55;4.10;;;0.50;;
12302;SDS011;6214;48.012;7.862;2024-02-26T02:59:22;4.10;;;0.50;;
12302;SDS011;6214;48.012;7.862;2024-02-26T03:01:49;4.00;;;0.40;;
12302;SDS011;6214;48.012;7.862;2024-02-26T03:04:16;4.13;;;0.40;;
12302;SDS011;6214;48.012;7.862;2024-02-26T03:06:43;4.00;;;0.40;;
12302;SDS011;6214;48.012;7.862;2024-02-26T03:09:10;4.60;;;0.40;;
12302;SDS011;6214;48.012;7.862;2024-02-26T03:11:37;4.10;;;0.40;;
12302;SDS011;6214;48.012;7.862;2024-02-26T03:14:05;4.00;;;0.40;;
12302;SDS011;6214;48.012;7.862;2024-02-26T03:16:32;4.10;;;0.40;;
12302;SDS011;6214;48.012;7.862;2024-02-26T03:19:00;4.10;;;0.50;;
12302;SDS011;6214;48.012;7.862;2024-02-26T03:21:27;4.00;;;0.40;;
12302;SDS011;6214;48.012;7.862;2024-02-26T03:23:55;4.00;;;0.40;;
12302;SDS011;6214;48.012;7.862;2024-02-26T03:26:22;4.20;;;0.40;;
12302;SDS011;6214;48.012;7.862;2024-02-26T03:28:49;4.00;;;0.40;;
12302;SDS011;6214;48.012;7.862;2024-02-26T03:31:15;4.00;;;0.40;;
12302;SDS011;6214;48.012;7.862;2024-02-26T03:33:43;4.10;;;0.50;;
12302;SDS011;6214;48.012;7.862;2024-02-26T03:36:10;4.20;;;0.40;;
12302;SDS011;6214;48.012;7.862;2024-02-26T03:38:37;4.10;;;0.40;;
12302;SDS011;6214;48.012;7.862;2024-02-26T03:41:05;4.00;;;0.40;;
12302;SDS011;6214;48.012;7.862;2024-02-26T03:43:32;4.10;;;0.40;;
12302;SDS011;6214;48.012;7.862;2024-02-26T03:45:59;4.00;;;0.30;;
12302;SDS011;6214;48.012;7.862;2024-02-26T03:48:26;4.10;;;0.40;;
12302;SDS011;6214;48.012;7.862;2024-02-26T03:50:53;4.28;;;0.40;;
12302;SDS011;6214;48.012;7.862;2024-02-26T03:53:21;4.10;;;0.50;;
12302;SDS011;6214;48.012;7.862;2024-02-26T03:55:48;4.00;;;0.40;;
12302;SDS011;6214;48.012;7.862;2024-02-26T03:58:18;4.00;;;0.30;;
12302;SDS011;6214;48.012;7.862;2024-02-26T04:00:45;4.00;;;0.30;;
12302;SDS011;6214;48.012;7.862;2024-02-26T04:03:14;4.10;;;0.50;;
12302;SDS011;6214;48.012;7.862;2024-02-26T04:05:42;4.00;;;0.40;;
12302;SDS011;6214;48.012;7.862;2024-02-26T04:08:09;4.50;;;0.40;;
12302;SDS011;6214;48.012;7.862;2024-02-26T04:10:37;4.00;;;0.40;;
12302;SDS011;6214;48.012;7.862;2024-02-26T04:13:07;4.00;;;0.30;;
12302;SDS011;6214;48.012;7.862;2024-02-26T04:15:35;4.00;;;0.32;;
12302;SDS011;6214;48.012;7.862;2024-02-26T04:18:02;4.00;;;0.40;;
12302;SDS011;6214;48.012;7.862;2024-02-26T04:20:30;4.00;;;0.30;;
12302;SDS011;6214;48.012;7.862;2024-02-26T04:22:57;4.22;;;0.40;;
12302;SDS011;6214;48.012;7.862;2024-02-26T04:25:24;4.20;;;0.40;;
12302;SDS011;6214;48.012;7.862;2024-02-26T04:27:52;3.90;;;0.30;;
12302;SDS011;6214;48.012;7.862;2024-02-26T04:30:19;3.90;;;0.30;;
12302;SDS011;6214;48.012;7.862;2024-02-26T04:32:46;4.00;;;0.40;;
12302;SDS011;6214;48.012;7.862;2024-02-26T04:35:14;3.90;;;0.37;;
12302;SDS011;6214;48.012;7.862;2024-02-26T04:37:41;3.92;;;0.30;;
12302;SDS011;6214;48.012;7.862;2024-02-26T04:40:08;3.90;;;0.30;;
12302;SDS011;6214;48.012;7.862;2024-02-26T04:42:36;3.97;;;0.30;;
12302;SDS011;6214;48.012;7.862;2024-02-26T04:45:03;3.90;;;0.30;;
12302;SDS011;6214;48.012;7.862;2024-02-26T04:47:31;3.90;;;0.30;;
12302;SDS011;6214;48.012;7.862;2024-02-26T04:49:58;3.90;;;0.30;;
12302;SDS011;6214;48.012;7.862;2024-02-26T04:52:25;4.00;;;0.30;;
12302;SDS011;6214;48.012;7.862;2024-02-26T04:54:53;4.00;;;0.40;;
12302;SDS011;6214;48.012;7.862;2024-02-26T04:57:21;4.00;;;0.40;;
12302;SDS011;6214;48.012;7.862;2024-02-26T04:59:49;4.00;;;0.40;;
12302;SDS011;6214;48.012;7.862;2024-02-26T05:02:16;3.90;;;0.30;;
12302;SDS011;6214;48.012;7.862;2024-02-26T05:04:44;3.90;;;0.30;;
12302;SDS011;6214;48.012;7.862;2024-02-26T05:07:11;4.00;;;0.40;;
12302;SDS011;6214;48.012;7.862;2024-02-26T05:09:39;3.90;;;0.30;;
12302;SDS011;6214;48.012;7.862;2024-02-26T05:12:08;3.90;;;0.30;;
12302;SDS011;6214;48.012;7.862;2024-02-26T05:14:36;3.90;;;0.30;;
12302;SDS011;6214;48.012;7.862;2024-02-26T05:17:03;4.00;;;0.30;;
12302;SDS011;6214;48.012;7.862;2024-02-26T05:19:32;3.90;;;0.40;;
12302;SDS011;6214;48.012;7.862;2024-02-26T05:21:59;4.00;;;0.40;;
12302;SDS011;6214;48.012;7.862;2024-02-26T05:24:26;4.20;;;0.40;;
12302;SDS011;6214;48.012;7.862;2024-02-26T05:26:54;4.20;;;0.60;;
12302;SDS011;6214;48.012;7.862;2024-02-26T05:29:22;4.10;;;0.50;;
12302;SDS011;6214;48.012;7.862;2024-02-26T05:31:49;4.05;;;0.40;;
12302;SDS011;6214;48.012;7.862;2024-02-26T05:34:16;4.00;;;0.40;;
12302;SDS011;6214;48.012;7.862;2024-02-26T05:36:44;4.00;;;0.40;;
12302;SDS011;6214;48.012;7.862;2024-02-26T05:39:11;4.00;;;0.40;;
12302;SDS011;6214;48.012;7.862;2024-02-26T05:41:44;4.10;;;0.40;;
12302;SDS011;6214;48.012;7.862;2024-02-26T05:44:11;3.90;;;0.30;;
12302;SDS011;6214;48.012;7.862;2024-02-26T05:46:38;4.00;;;0.30;;
12302;SDS011;6214;48.012;7.862;2024-02-26T05:49:06;3.90;;;0.40;;
12302;SDS011;6214;48.012;7.862;2024-02-26T05:51:33;3.90;;;0.40;;
12302;SDS011;6214;48.012;7.862;2024-02-26T05:54:01;4.00;;;0.40;;
12302;SDS011;6214;48.012;7.862;2024-02-26T05:56:28;4.00;;;0.40;;
12302;SDS011;6214;48.012;7.862;2024-02-26T05:58:55;3.90;;;0.40;;
12302;SDS011;6214;48.012;7.862;2024-02-26T06:01:23;3.90;;;0.40;;
12302;SDS011;6214;48.012;7.862;2024-02-26T06:03:52;3.90;;;0.30;;
12302;SDS011;6214;48.012;7.862;2024-02-26T06:06:19;4.00;;;0.40;;
12302;SDS011;6214;48.012;7.862;2024-02-26T06:08:49;3.90;;;0.40;;
12302;SDS011;6214;48.012;7.862;2024-02-26T06:11:17;4.00;;;0.50;;
12302;SDS011;6214;48.012;7.862;2024-02-26T06:13:45;4.00;;;0.40;;
12302;SDS011;6214;48.012;7.862;2024-02-26T06:16:12;3.90;;;0.33;;
12302;SDS011;6214;48.012;7.862;2024-02-26T06:18:40;4.10;;;0.40;;
12302;SDS011;6214;48.012;7.862;2024-02-26T06:21:10;4.00;;;0.40;;
12302;SDS011;6214;48.012;7.862;2024-02-26T06:23:38;4.00;;;0.30;;
12302;SDS011;6214;48.012;7.862;2024-02-26T06:26:06;4.00;;;0.40;;
12302;SDS011;6214;48.012;7.862;2024-02-26T06:28:34;3.90;;;0.30;;
12302;SDS011;6214;48.012;7.862;2024-02-26T06:31:02;4.00;;;0.40;;
12302;SDS011;6214;48.012;7.862;2024-02-26T06:33:29;4.00;;;0.30;;
12302;SDS011;6214;48.012;7.862;2024-02-26T06:35:57;4.00;;;0.40;;
12302;SDS011;6214;48.012;7.862;2024-02-26T06:38:24;3.90;;;0.30;;
12302;SDS011;6214;48.012;7.862;2024-02-26T06:40:52;4.00;;;0.40;;
12302;SDS011;6214;48.012;7.862;2024-02-26T06:43:20;4.00;;;0.40;;
12302;SDS011;6214;48.012;7.862;2024-02-26T06:45:47;4.00;;;0.40;;
12302;SDS011;6214;48.012;7.862;2024-02-26T06:48:14;3.90;;;0.30;;
12302;SDS011;6214;48.012;7.862;2024-02-26T06:50:42;3.90;;;0.30;;
12302;SDS011;6214;48.012;7.862;2024-02-26T06:53:09;4.00;;;0.40;;
12302;SDS011;6214;48.012;7.862;2024-02-26T06:55:36;4.00;;;0.30;;
12302;SDS011;6214;48.012;7.862;2024-02-26T06:58:06;4.00;;;0.40;;
12302;SDS011;6214;48.012;7.862;2024-02-26T07:00:34;3.90;;;0.30;;
12302;SDS011;6214;48.012;7.862;2024-02-26T07:03:01;4.00;;;0.40;;
12302;SDS011;6214;48.012;7.862;2024-02-26T07:05:29;3.90;;;0.40;;
12302;SDS011;6214;48.012;7.862;2024-02-26T07:07:56;3.90;;;0.30;;
12302;SDS011;6214;48.012;7.862;2024-02-26T07:10:23;3.90;;;0.30;;
12302;SDS011;6214;48.012;7.862;2024-02-26T07:12:51;4.10;;;0.40;;
12302;SDS011;6214;48.012;7.862;2024-02-26T07:15:18;4.10;;;0.40;;
12302;SDS011;6214;48.012;7.862;2024-02-26T07:17:45;3.90;;;0.40;;
12302;SDS011;6214;48.012;7.862;2024-02-26T07:20:14;4.30;;;0.40;;
12302;SDS011;6214;48.012;7.862;2024-02-26T07:22:43;3.90;;;0.30;;
12302;SDS011;6214;48.012;7.862;2024-02-26T07:25:10;4.00;;;0.40;;
12302;SDS011;6214;48.012;7.862;2024-02-26T07:27:40;4.00;;;0.35;;
12302;SDS011;6214;48.012;7.862;2024-02-26T07:30:07;3.90;;;0.30;;
12302;SDS011;6214;48.012;7.862;2024-02-26T07:32:35;4.00;;;0.40;;
12302;SDS011;6214;48.012;7.862;2024-02-26T07:35:03;4.00;;;0.40;;
12302;SDS011;6214;48.012;7.862;2024-02-26T07:37:31;4.10;;;0.40;;
12302;SDS011;6214;48.012;7.862;2024-02-26T07:39:58;4.00;;;0.40;;
12302;SDS011;6214;48.012;7.862;2024-02-26T07:42:26;4.00;;;0.40;;
12302;SDS011;6214;48.012;7.862;2024-02-26T07:44:53;4.20;;;0.50;;
12302;SDS011;6214;48.012;7.862;2024-02-26T07:47:21;4.20;;;0.50;;
12302;SDS011;6214;48.012;7.862;2024-02-26T07:49:48;4.20;;;0.57;;
12302;SDS011;6214;48.012;7.862;2024-02-26T07:52:16;4.50;;;0.60;;
12302;SDS011;6214;48.012;7.862;2024-02-26T07:54:43;4.20;;;0.60;;
12302;SDS011;6214;48.012;7.862;2024-02-26T07:57:10;4.30;;;0.60;;
12302;SDS011;6214;48.012;7.862;2024-02-26T07:59:37;4.68;;;0.57;;
12302;SDS011;6214;48.012;7.862;2024-02-26T08:02:07;4.20;;;0.60;;
12302;SDS011;6214;48.012;7.862;2024-02-26T08:04:34;4.10;;;0.50;;
12302;SDS011;6214;48.012;7.862;2024-02-26T08:07:02;4.18;;;0.50;;
12302;SDS011;6214;48.012;7.862;2024-02-26T08:09:29;4.20;;;0.60;;
12302;SDS011;6214;48.012;7.862;2024-02-26T08:11:57;4.40;;;0.60;;
12302;SDS011;6214;48.012;7.862;2024-02-26T08:14:24;4.15;;;0.60;;
12302;SDS011;6214;48.012;7.862;2024-02-26T08:16:51;4.38;;;0.70;;
12302;SDS011;6214;48.012;7.862;2024-02-26T08:19:19;4.30;;;0.80;;
12302;SDS011;6214;48.012;7.862;2024-02-26T08:21:46;4.30;;;0.80;;
12302;SDS011;6214;48.012;7.862;2024-02-26T08:24:14;4.10;;;0.50;;
12302;SDS011;6214;48.012;7.862;2024-02-26T08:26:41;4.00;;;0.40;;
12302;SDS011;6214;48.012;7.862;2024-02-26T08:29:08;4.10;;;0.57;;
12302;SDS011;6214;48.012;7.862;2024-02-26T08:31:36;4.30;;;0.80;;
12302;SDS011;6214;48.012;7.862;2024-02-26T08:34:04;4.80;;;1.30;;
12302;SDS011;6214;48.012;7.862;2024-02-26T08:36:32;4.40;;;0.85;;
12302;SDS011;6214;48.012;7.862;2024-02-26T08:39:00;4.30;;;0.70;;
12302;SDS011;6214;48.012;7.862;2024-02-26T08:41:28;4.13;;;0.52;;
12302;SDS011;6214;48.012;7.862;2024-02-26T08:43:55;4.30;;;0.70;;
12302;SDS011;6214;48.012;7.862;2024-02-26T08:46:24;4.30;;;0.60;;
12302;SDS011;6214;48.012;7.862;2024-02-26T08:48:52;4.30;;;0.60;;
12302;SDS011;6214;48.012;7.862;2024-02-26T08:51:19;4.30;;;0.60;;
12302;SDS011;6214;48.012;7.862;2024-02-26T08:53:47;4.40;;;0.80;;
12302;SDS011;6214;48.012;7.862;2024-02-26T08:56:15;4.47;;;0.90;;
12302;SDS011;6214;48.012;7.862;2024-02-26T08:58:45;4.40;;;0.73;;
12302;SDS011;6214;48.012;7.862;2024-02-26T09:01:15;4.30;;;0.60;;
12302;SDS011;6214;48.012;7.862;2024-02-26T09:03:43;4.50;;;0.60;;
12302;SDS011;6214;48.012;7.862;2024-02-26T09:06:11;4.30;;;0.60;;
12302;SDS011;6214;48.012;7.862;2024-02-26T09:08:38;4.25;;;0.60;;
12302;SDS011;6214;48.012;7.862;2024-02-26T09:11:05;4.55;;;0.75;;
12302;SDS011;6214;48.012;7.862;2024-02-26T09:13:33;4.30;;;0.50;;
12302;SDS011;6214;48.012;7.862;2024-02-26T09:16:00;4.10;;;0.50;;
12302;SDS011;6214;48.012;7.862;2024-02-26T09:18:28;4.30;;;0.60;;
12302;SDS011;6214;48.012;7.862;2024-02-26T09:20:56;4.32;;;0.70;;
12302;SDS011;6214;48.012;7.862;2024-02-26T09:23:24;4.40;;;0.60;;
12302;SDS011;6214;48.012;7.862;2024-02-26T09:25:51;4.20;;;0.70;;
12302;SDS011;6214;48.012;7.862;2024-02-26T09:28:18;4.40;;;0.50;;
12302;SDS011;6214;48.012;7.862;2024-02-26T09:30:45;4.30;;;0.50;;
12302;SDS011;6214;48.012;7.862;2024-02-26T09:33:13;4.13;;;0.50;;
12302;SDS011;6214;48.012;7.862;2024-02-26T09:35:41;4.00;;;0.40;;
12302;SDS011;6214;48.012;7.862;2024-02-26T09:38:08;4.10;;;0.40;;
12302;SDS011;6214;48.012;7.862;2024-02-26T09:40:36;4.10;;;0.50;;
12302;SDS011;6214;48.012;7.862;2024-02-26T09:43:04;4.10;;;0.40;;
12302;SDS011;6214;48.012;7.862;2024-02-26T09:45:32;4.00;;;0.40;;
12302;SDS011;6214;48.012;7.862;2024-02-26T09:48:00;4.10;;;0.50;;
12302;SDS011;6214;48.012;7.862;2024-02-26T09:50:31;4.50;;;0.80;;
12302;SDS011;6214;48.012;7.862;2024-02-26T09:52:58;4.60;;;0.80;;
12302;SDS011;6214;48.012;7.862;2024-02-26T09:55:29;4.40;;;0.80;;
12302;SDS011;6214;48.012;7.862;2024-02-26T09:57:56;4.30;;;0.60;;
12302;SDS011;6214;48.012;7.862;2024-02-26T10:00:25;4.30;;;0.73;;
12302;SDS011;6214;48.012;7.862;2024-02-26T10:02:56;4.30;;;0.70;;
12302;SDS011;6214;48.012;7.862;2024-02-26T10:05:25;4.50;;;1.00;;
12302;SDS011;6214;48.012;7.862;2024-02-26T10:07:53;4.40;;;0.90;;
12302;SDS011;6214;48.012;7.862;2024-02-26T10:10:22;4.20;;;0.70;;
12302;SDS011;6214;48.012;7.862;2024-02-26T10:12:49;4.30;;;0.80;;
12302;SDS011;6214;48.012;7.862;2024-02-26T10:15:16;4.45;;;0.90;;
12302;SDS011;6214;48.012;7.862;2024-02-26T10:17:43;4.65;;;1.00;;
12302;SDS011;6214;48.012;7.862;2024-02-26T10:20:14;4.47;;;0.90;;
12302;SDS011;6214;48.012;7.862;2024-02-26T10:22:50;4.30;;;0.70;;
12302;SDS011;6214;48.012;7.862;2024-02-26T10:25:18;4.40;;;0.70;;
12302;SDS011;6214;48.012;7.862;2024-02-26T10:27:46;4.30;;;0.60;;
12302;SDS011;6214;48.012;7.862;2024-02-26T10:32:45;4.40;;;0.70;;
12302;SDS011;6214;48.012;7.862;2024-02-26T10:35:13;4.65;;;0.90;;
12302;SDS011;6214;48.012;7.862;2024-02-26T10:37:41;4.60;;;1.00;;
12302;SDS011;6214;48.012;7.862;2024-02-26T10:40:10;4.30;;;0.80;;
12302;SDS011;6214;48.012;7.862;2024-02-26T10:42:37;4.70;;;0.90;;
12302;SDS011;6214;48.012;7.862;2024-02-26T10:45:08;4.50;;;0.80;;
12302;SDS011;6214;48.012;7.862;2024-02-26T10:47:36;4.30;;;0.73;;
12302;SDS011;6214;48.012;7.862;2024-02-26T10:50:04;4.40;;;0.70;;
12302;SDS011;6214;48.012;7.862;2024-02-26T10:52:32;4.70;;;0.82;;
12302;SDS011;6214;48.012;7.862;2024-02-26T10:55:01;4.55;;;0.80;;
12302;SDS011;6214;48.012;7.862;2024-02-26T10:57:31;4.30;;;0.60;;
12302;SDS011;6214;48.012;7.862;2024-02-26T11:00:01;4.40;;;0.90;;
12302;SDS011;6214;48.012;7.862;2024-02-26T11:02:34;4.80;;;1.00;;
12302;SDS011;6214;48.012;7.862;2024-02-26T11:05:02;5.40;;;1.27;;
12302;SDS011;6214;48.012;7.862;2024-02-26T11:07:30;4.65;;;1.00;;
12302;SDS011;6214;48.012;7.862;2024-02-26T11:10:01;4.70;;;1.00;;
12302;SDS011;6214;48.012;7.862;2024-02-26T11:12:32;4.70;;;0.90;;
12302;SDS011;6214;48.012;7.862;2024-02-26T11:15:04;4.68;;;1.00;;
12302;SDS011;6214;48.012;7.862;2024-02-26T11:17:32;4.43;;;1.00;;
12302;SDS011;6214;48.012;7.862;2024-02-26T11:20:00;4.40;;;0.90;;
12302;SDS011;6214;48.012;7.862;2024-02-26T11:22:32;4.50;;;0.80;;
12302;SDS011;6214;48.012;7.862;2024-02-26T11:24:59;4.70;;;1.00;;
12302;SDS011;6214;48.012;7.862;2024-02-26T11:27:31;4.35;;;0.70;;
12302;SDS011;6214;48.012;7.862;2024-02-26T11:30:01;4.50;;;0.80;;
12302;SDS011;6214;48.012;7.862;2024-02-26T11:32:31;4.40;;;0.98;;
12302;SDS011;6214;48.012;7.862;2024-02-26T11:35:01;4.50;;;0.70;;
12302;SDS011;6214;48.012;7.862;2024-02-26T11:37:29;4.20;;;0.60;;
12302;SDS011;6214;48.012;7.862;2024-02-26T11:39:58;4.10;;;0.50;;
12302;SDS011;6214;48.012;7.862;2024-02-26T11:42:29;4.60;;;1.00;;
12302;SDS011;6214;48.012;7.862;2024-02-26T11:44:57;4.50;;;0.80;;
12302;SDS011;6214;48.012;7.862;2024-02-26T11:47:27;4.40;;;0.82;;
12302;SDS011;6214;48.012;7.862;2024-02-26T11:49:55;4.70;;;1.00;;
12302;SDS011;6214;48.012;7.862;2024-02-26T11:52:22;5.20;;;1.20;;
12302;SDS011;6214;48.012;7.862;2024-02-26T11:54:50;4.70;;;1.20;;
12302;SDS011;6214;48.012;7.862;2024-02-26T11:57:28;4.90;;;1.20;;
12302;SDS011;6214;48.012;7.862;2024-02-26T12:00:17;4.82;;;1.30;;
12302;SDS011;6214;48.012;7.862;2024-02-26T12:02:49;4.90;;;1.20;;
12302;SDS011;6214;48.012;7.862;2024-02-26T12:05:32;4.70;;;0.90;;
12302;SDS011;6214;48.012;7.862;2024-02-26T12:08:03;4.40;;;0.80;;
12302;SDS011;6214;48.012;7.862;2024-02-26T12:10:38;4.80;;;1.00;;
12302;SDS011;6214;48.012;7.862;2024-02-26T12:15:46;4.60;;;0.90;;
12302;SDS011;6214;48.012;7.862;2024-02-26T12:18:22;4.20;;;0.70;;
12302;SDS011;6214;48.012;7.862;2024-02-26T12:20:59;4.40;;;0.70;;
12302;SDS011;6214;48.012;7.862;2024-02-26T12:23:30;4.40;;;0.70;;
12302;SDS011;6214;48.012;7.862;2024-02-26T12:26:01;4.85;;;0.90;;
12302;SDS011;6214;48.012;7.862;2024-02-26T12:28:33;4.20;;;0.70;;
12302;SDS011;6214;48.012;7.862;2024-02-26T12:31:01;4.30;;;0.70;;
12302;SDS011;6214;48.012;7.862;2024-02-26T12:33:28;4.40;;;0.70;;
12302;SDS011;6214;48.012;7.862;2024-02-26T12:35:56;4.28;;;0.60;;
12302;SDS011;6214;48.012;7.862;2024-02-26T12:38:26;4.40;;;0.73;;
12302;SDS011;6214;48.012;7.862;2024-02-26T12:40:54;4.30;;;0.70;;
12302;SDS011;6214;48.012;7.862;2024-02-26T12:43:21;4.25;;;0.70;;
12302;SDS011;6214;48.012;7.862;2024-02-26T12:45:48;4.30;;;0.60;;
12302;SDS011;6214;48.012;7.862;2024-02-26T12:48:15;4.20;;;0.60;;
12302;SDS011;6214;48.012;7.862;2024-02-26T12:50:45;4.68;;;0.80;;
12302;SDS011;6214;48.012;7.862;2024-02-26T12:53:15;4.72;;;1.00;;
12302;SDS011;6214;48.012;7.862;2024-02-26T12:55:43;4.50;;;0.90;;
12302;SDS011;6214;48.012;7.862;2024-02-26T12:58:11;4.65;;;0.85;;
12302;SDS011;6214;48.012;7.862;2024-02-26T13:00:39;4.50;;;0.90;;
12302;SDS011;6214;48.012;7.862;2024-02-26T13:03:07;4.20;;;0.70;;
12302;SDS011;6214;48.012;7.862;2024-02-26T13:05:34;4.10;;;0.50;;
12302;SDS011;6214;48.012;7.862;2024-02-26T13:08:02;4.40;;;0.77;;
12302;SDS011;6214;48.012;7.862;2024-02-26T13:10:34;5.20;;;0.90;;
12302;SDS011;6214;48.012;7.862;2024-02-26T13:13:02;4.30;;;0.70;;
12302;SDS011;6214;48.012;7.862;2024-02-26T13:15:29;4.50;;;0.70;;
12302;SDS011;6214;48.012;7.862;2024-02-26T13:17:56;4.70;;;0.90;;
12302;SDS011;6214;48.012;7.862;2024-02-26T13:20:28;4.78;;;1.00;;
12302;SDS011;6214;48.012;7.862;2024-02-26T13:23:02;4.30;;;0.70;;
12302;SDS011;6214;48.012;7.862;2024-02-26T13:25:31;4.70;;;0.80;;
12302;SDS011;6214;48.012;7.862;2024-02-26T13:28:15;4.40;;;0.80;;
12302;SDS011;6214;48.012;7.862;2024-02-26T13:30:56;4.20;;;0.60;;
12302;SDS011;6214;48.012;7.862;2024-02-26T13:33:25;4.50;;;0.90;;
12302;SDS011;6214;48.012;7.862;2024-02-26T13:35:57;4.40;;;0.70;;
12302;SDS011;6214;48.012;7.862;2024-02-26T13:38:24;4.60;;;0.90;;
12302;SDS011;6214;48.012;7.862;2024-02-26T13:40:52;4.50;;;0.80;;
12302;SDS011;6214;48.012;7.862;2024-02-26T13:43:19;4.68;;;0.90;;
12302;SDS011;6214;48.012;7.862;2024-02-26T13:45:47;4.20;;;0.60;;
12302;SDS011;6214;48.012;7.862;2024-02-26T13:48:14;4.50;;;0.90;;
12302;SDS011;6214;48.012;7.862;2024-02-26T13:50:42;4.38;;;0.90;;
12302;SDS011;6214;48.012;7.862;2024-02-26T13:53:12;4.20;;;0.55;;
12302;SDS011;6214;48.012;7.862;2024-02-26T13:55:40;4.10;;;0.50;;
12302;SDS011;6214;48.012;7.862;2024-02-26T13:58:11;5.00;;;1.00;;
12302;SDS011;6214;48.012;7.862;2024-02-26T14:00:42;4.40;;;0.80;;
12302;SDS011;6214;48.012;7.862;2024-02-26T14:03:10;4.20;;;0.60;;
12302;SDS011;6214;48.012;7.862;2024-02-26T14:05:37;4.30;;;0.70;;
12302;SDS011;6214;48.012;7.862;2024-02-26T14:08:04;4.50;;;0.80;;
12302;SDS011;6214;48.012;7.862;2024-02-26T14:10:32;4.32;;;0.90;;
12302;SDS011;6214;48.012;7.862;2024-02-26T14:12:59;4.50;;;0.90;;
12302;SDS011;6214;48.012;7.862;2024-02-26T14:15:27;4.40;;;0.80;;
12302;SDS011;6214;48.012;7.862;2024-02-26T14:17:55;4.60;;;1.00;;
12302;SDS011;6214;48.012;7.862;2024-02-26T14:20:24;4.50;;;0.90;;
12302;SDS011;6214;48.012;7.862;2024-02-26T14:22:52;4.80;;;1.20;;
12302;SDS011;6214;48.012;7.862;2024-02-26T14:25:22;4.53;;;0.80;;
12302;SDS011;6214;48.012;7.862;2024-02-26T14:27:51;4.40;;;0.90;;
12302;SDS011;6214;48.012;7.862;2024-02-26T14:30:18;5.20;;;1.08;;
12302;SDS011;6214;48.012;7.862;2024-02-26T14:32:45;4.80;;;1.02;;
12302;SDS011;6214;48.012;7.862;2024-02-26T14:35:12;4.60;;;1.05;;
12302;SDS011;6214;48.012;7.862;2024-02-26T14:37:43;4.90;;;1.20;;
12302;SDS011;6214;48.012;7.862;2024-02-26T14:40:15;4.65;;;1.08;;
12302;SDS011;6214;48.012;7.862;2024-02-26T14:42:42;4.40;;;0.80;;
12302;SDS011;6214;48.012;7.862;2024-02-26T14:45:11;4.68;;;0.98;;
12302;SDS011;6214;48.012;7.862;2024-02-26T14:47:38;4.32;;;0.77;;
12302;SDS011;6214;48.012;7.862;2024-02-26T14:50:06;4.70;;;0.90;;
12302;SDS011;6214;48.012;7.862;2024-02-26T14:52:33;4.30;;;0.70;;
12302;SDS011;6214;48.012;7.862;2024-02-26T14:55:00;4.50;;;1.00;;
12302;SDS011;6214;48.012;7.862;2024-02-26T14:57:28;4.40;;;0.90;;
12302;SDS011;6214;48.012;7.862;2024-02-26T14:59:55;4.40;;;0.80;;
12302;SDS011;6214;48.012;7.862;2024-02-26T15:02:22;4.85;;;0.80;;
12302;SDS011;6214;48.012;7.862;2024-02-26T15:04:49;4.30;;;0.70;;
12302;SDS011;6214;48.012;7.862;2024-02-26T15:07:16;4.40;;;0.80;;
12302;SDS011;6214;48.012;7.862;2024-02-26T15:09:46;4.55;;;0.90;;
12302;SDS011;6214;48.012;7.862;2024-02-26T15:12:13;4.45;;;0.90;;